Time;durP1;ratioP1;P1;durP2;ratioP2;P2;SDS_P1;SDS_P2;PMS_P1;PMS_P2;Temp;Humidity;BMP_temperature;BMP_pressure;BME280_temperature;BME280_humidity;BME280_pressure;Samples;Min_cycle;Max_cycle;Signal;HPM_P1;HPM_P2
2022/10/17 00:02:00;;;;;;;18.02;12.57;;;;;;;;;;5092470;28;20024;-68
2022/10/17 00:04:26;;;;;;;17.73;12.75;;;;;;;;;;5091918;28;20039;-69
2022/10/17 00:06:52;;;;;;;16.65;12.60;;;;;;;;;;5092217;28;20103;-71
2022/10/17 00:09:18;;;;;;;21.85;12.73;;;;;;;;;;5091927;28;20032;-71
2022/10/17 00:11:44;;;;;;;22.23;12.35;;;;;;;;;;5092339;28;20075;-77
2022/10/17 00:14:10;;;;;;;19.30;13.48;;;;;;;;;;5092123;28;20024;-75
2022/10/17 00:16:36;;;;;;;16.95;12.13;;;;;;;;;;5106346;28;20024;-72
2022/10/17 00:19:06;;;;;;;18.40;12.02;;;;;;;;;;5091880;28;20027;-78
2022/10/17 00:21:32;;;;;;;19.00;12.02;;;;;;;;;;5092028;28;20083;-73
2022/10/17 00:23:59;;;;;;;17.15;10.73;;;;;;;;;;5096599;28;20020;-72
2022/10/17 00:26:26;;;;;;;13.95;11.18;;;;;;;;;;5100194;28;20103;-72
2022/10/17 00:28:52;;;;;;;17.60;12.98;;;;;;;;;;5102577;28;20565;-70
2022/10/17 00:31:19;;;;;;;17.15;12.25;;;;;;;;;;5091788;28;20031;-71
2022/10/17 00:33:46;;;;;;;20.25;12.20;;;;;;;;;;5091403;28;20039;-70
2022/10/17 00:36:13;;;;;;;19.23;12.85;;;;;;;;;;5098154;28;20027;-70
2022/10/17 00:38:40;;;;;;;18.80;11.68;;;;;;;;;;5099130;28;20028;-72
2022/10/17 00:41:07;;;;;;;14.63;11.07;;;;;;;;;;5091709;28;20477;-74
2022/10/17 00:44:08;;;;;;;14.30;11.57;;;;;;;;;;5091717;28;20031;-70
2022/10/17 00:46:38;;;;;;;15.27;11.15;;;;;;;;;;5029577;28;20060;-73
2022/10/17 00:49:07;;;;;;;16.88;11.52;;;;;;;;;;5029261;28;20041;-73
2022/10/17 00:51:48;;;;;;;14.45;11.20;;;;;;;;;;5029546;28;20790;-73
2022/10/17 00:54:15;;;;;;;17.60;11.57;;;;;;;;;;5015605;28;20518;-72
2022/10/17 00:56:41;;;;;;;15.75;10.98;;;;;;;;;;5029852;28;20036;-73
2022/10/17 00:59:08;;;;;;;16.48;11.27;;;;;;;;;;5029290;28;20040;-76
2022/10/17 01:01:34;;;;;;;14.32;11.80;;;;;;;;;;5007733;28;20034;-75
2022/10/17 01:04:00;;;;;;;17.67;12.02;;;;;;;;;;5020824;28;20061;-76
2022/10/17 01:06:27;;;;;;;14.60;11.27;;;;;;;;;;5029457;28;20033;-76
2022/10/17 01:08:53;;;;;;;14.88;11.20;;;;;;;;;;5032983;28;20021;-76
2022/10/17 01:11:22;;;;;;;15.27;11.07;;;;;;;;;;5016282;28;20025;-76
2022/10/17 01:13:59;;;;;;;12.82;10.63;;;;;;;;;;5016314;28;20034;-76
2022/10/17 01:16:57;;;;;;;12.05;10.43;;;;;;;;;;5032875;28;20044;-77
2022/10/17 01:19:42;;;;;;;15.27;10.27;;;;;;;;;;4955405;28;20049;-76
2022/10/17 01:22:11;;;;;;;16.80;10.35;;;;;;;;;;4993211;28;20034;-74
2022/10/17 01:24:43;;;;;;;23.40;16.35;;;;;;;;;;4973755;28;20066;-76
2022/10/17 01:27:09;;;;;;;25.23;18.77;;;;;;;;;;4993338;28;20027;-75
2022/10/17 01:29:53;;;;;;;17.48;13.55;;;;;;;;;;4976731;28;20030;-75
2022/10/17 01:32:37;;;;;;;14.75;11.38;;;;;;;;;;4979562;28;20039;-77
2022/10/17 01:35:09;;;;;;;13.82;10.40;;;;;;;;;;4992871;28;20089;-74
2022/10/17 01:37:43;;;;;;;15.13;10.52;;;;;;;;;;4993240;28;20416;-74
2022/10/17 01:40:12;;;;;;;16.25;10.52;;;;;;;;;;4992823;28;20048;-72
2022/10/17 01:42:48;;;;;;;14.30;10.77;;;;;;;;;;4992868;28;20392;-72
2022/10/17 01:45:19;;;;;;;16.85;10.85;;;;;;;;;;4992933;28;20035;-72
2022/10/17 01:47:47;;;;;;;16.45;11.25;;;;;;;;;;4973234;28;20054;-74
2022/10/17 01:50:25;;;;;;;15.57;10.30;;;;;;;;;;4982966;28;20034;-75
2022/10/17 01:52:53;;;;;;;16.95;11.27;;;;;;;;;;4992677;28;20034;-73
2022/10/17 01:55:24;;;;;;;17.25;10.75;;;;;;;;;;5061671;28;20036;-70
2022/10/17 01:57:53;;;;;;;15.60;10.70;;;;;;;;;;5094477;28;20141;-71
2022/10/17 02:00:21;;;;;;;14.38;11.25;;;;;;;;;;5094380;28;20032;-72
2022/10/17 02:02:47;;;;;;;17.65;10.75;;;;;;;;;;5094216;28;20036;-70
2022/10/17 02:05:15;;;;;;;14.73;11.20;;;;;;;;;;5093906;28;20110;-70
2022/10/17 02:07:41;;;;;;;23.65;11.23;;;;;;;;;;5094137;28;20385;-70
2022/10/17 02:10:11;;;;;;;18.23;10.63;;;;;;;;;;5094003;28;20035;-72
2022/10/17 02:12:43;;;;;;;17.17;10.95;;;;;;;;;;5076062;28;20482;-74
2022/10/17 02:15:28;;;;;;;16.15;10.82;;;;;;;;;;5094080;28;20027;-76
2022/10/17 02:18:12;;;;;;;13.75;10.20;;;;;;;;;;5093750;28;20027;-76
2022/10/17 02:20:51;;;;;;;13.68;9.80;;;;;;;;;;5093746;28;20028;-72
2022/10/17 02:23:25;;;;;;;16.45;9.68;;;;;;;;;;5097934;28;20042;-74
2022/10/17 02:25:57;;;;;;;12.45;9.55;;;;;;;;;;5075590;28;20455;-73
2022/10/17 02:28:42;;;;;;;16.08;9.80;;;;;;;;;;5093532;28;20020;-73
2022/10/17 02:31:13;;;;;;;12.63;10.07;;;;;;;;;;5075784;28;20073;-73
2022/10/17 02:33:51;;;;;;;20.23;13.43;;;;;;;;;;5075218;28;20032;-73
2022/10/17 02:36:20;;;;;;;19.17;12.55;;;;;;;;;;5082699;28;20477;-73
2022/10/17 02:38:46;;;;;;;19.25;12.48;;;;;;;;;;5100289;28;20028;-74
2022/10/17 02:41:15;;;;;;;19.55;12.40;;;;;;;;;;5093373;28;20531;-73
2022/10/17 02:43:44;;;;;;;16.95;12.52;;;;;;;;;;5093598;28;20038;-76
2022/10/17 02:46:10;;;;;;;15.25;11.02;;;;;;;;;;5093440;28;20027;-75
2022/10/17 02:48:39;;;;;;;17.23;11.80;;;;;;;;;;5093389;28;20028;-73
2022/10/17 02:51:14;;;;;;;14.63;11.10;;;;;;;;;;5093417;28;20024;-72
2022/10/17 02:53:52;;;;;;;15.05;11.23;;;;;;;;;;5103567;28;20510;-75
2022/10/17 02:56:22;;;;;;;16.40;11.10;;;;;;;;;;5077405;28;20386;-76
2022/10/17 02:58:54;;;;;;;13.32;10.38;;;;;;;;;;5104117;28;20019;-73
2022/10/17 03:01:20;;;;;;;13.50;10.70;;;;;;;;;;5113329;28;20028;-73
2022/10/17 03:03:46;;;;;;;15.23;11.10;;;;;;;;;;5086030;28;20390;-73
2022/10/17 03:06:12;;;;;;;14.85;10.18;;;;;;;;;;5094083;28;20166;-73
2022/10/17 03:08:38;;;;;;;14.23;9.85;;;;;;;;;;5106093;28;20016;-73
2022/10/17 03:11:04;;;;;;;11.27;8.77;;;;;;;;;;5093013;28;20034;-73
2022/10/17 03:13:30;;;;;;;16.05;9.95;;;;;;;;;;5093030;28;20020;-70
2022/10/17 03:15:56;;;;;;;10.48;9.00;;;;;;;;;;5092955;28;20450;-73
2022/10/17 03:18:23;;;;;;;16.17;9.85;;;;;;;;;;5092652;28;20009;-71
2022/10/17 03:20:49;;;;;;;16.05;9.57;;;;;;;;;;5092744;28;20044;-72
2022/10/17 03:23:15;;;;;;;13.68;10.00;;;;;;;;;;5096375;28;20020;-73
2022/10/17 03:25:41;;;;;;;14.50;9.90;;;;;;;;;;5092631;28;20071;-72
2022/10/17 03:28:07;;;;;;;16.55;9.82;;;;;;;;;;5106813;28;20354;-72
2022/10/17 03:30:33;;;;;;;11.85;9.23;;;;;;;;;;5098309;28;20434;-77
2022/10/17 03:33:00;;;;;;;13.98;10.45;;;;;;;;;;5100804;28;20035;-72
2022/10/17 03:35:27;;;;;;;14.63;10.52;;;;;;;;;;5092323;28;20070;-72
2022/10/17 03:37:55;;;;;;;15.32;10.43;;;;;;;;;;5092401;28;20024;-71
2022/10/17 03:40:21;;;;;;;14.80;10.80;;;;;;;;;;5092234;28;20432;-73
2022/10/17 03:42:47;;;;;;;16.35;11.25;;;;;;;;;;5092271;28;20024;-72
2022/10/17 03:45:13;;;;;;;15.60;11.35;;;;;;;;;;5092546;28;20024;-72
2022/10/17 03:47:39;;;;;;;18.38;13.10;;;;;;;;;;5092352;28;20489;-72
2022/10/17 03:50:06;;;;;;;19.30;12.98;;;;;;;;;;5092368;28;20031;-73
2022/10/17 03:52:32;;;;;;;18.10;12.25;;;;;;;;;;5092407;28;20093;-72
2022/10/17 03:54:58;;;;;;;15.43;11.85;;;;;;;;;;5105467;28;20028;-73
2022/10/17 03:57:24;;;;;;;16.67;11.90;;;;;;;;;;5105877;28;20019;-74
2022/10/17 03:59:51;;;;;;;18.75;12.30;;;;;;;;;;5093503;28;20107;-73
2022/10/17 04:02:17;;;;;;;24.27;13.00;;;;;;;;;;5092570;28;20024;-72
2022/10/17 04:04:43;;;;;;;13.88;10.93;;;;;;;;;;5074220;28;20482;-71
2022/10/17 04:07:09;;;;;;;18.35;11.10;;;;;;;;;;5092277;28;20032;-71
2022/10/17 04:09:35;;;;;;;12.88;10.05;;;;;;;;;;5092510;28;20374;-71
2022/10/17 04:12:01;;;;;;;16.98;9.75;;;;;;;;;;5092581;28;20030;-74
2022/10/17 04:14:27;;;;;;;19.27;11.00;;;;;;;;;;5092173;28;20104;-74
2022/10/17 04:16:53;;;;;;;22.27;15.27;;;;;;;;;;5092012;28;20657;-74
2022/10/17 04:19:20;;;;;;;15.90;12.90;;;;;;;;;;5073917;28;20077;-74
2022/10/17 04:21:46;;;;;;;16.52;13.18;;;;;;;;;;5092075;28;20031;-74
2022/10/17 04:24:12;;;;;;;19.10;12.68;;;;;;;;;;5077562;28;20028;-74
2022/10/17 04:26:38;;;;;;;16.88;12.65;;;;;;;;;;5091669;28;20031;-72
2022/10/17 04:29:04;;;;;;;18.00;11.90;;;;;;;;;;5073947;28;20385;-75
2022/10/17 04:31:30;;;;;;;21.00;14.05;;;;;;;;;;5091944;28;20021;-75
2022/10/17 04:33:56;;;;;;;19.30;12.63;;;;;;;;;;5091593;28;20510;-75
2022/10/17 04:36:22;;;;;;;15.75;11.18;;;;;;;;;;5081846;28;20046;-76
2022/10/17 04:38:48;;;;;;;16.52;10.95;;;;;;;;;;5097978;28;20509;-74
2022/10/17 04:41:16;;;;;;;16.63;11.60;;;;;;;;;;5091798;28;20058;-75
2022/10/17 04:43:42;;;;;;;21.30;13.05;;;;;;;;;;5095676;28;20145;-72
2022/10/17 04:46:10;;;;;;;18.60;12.52;;;;;;;;;;5095648;28;20498;-73
2022/10/17 04:48:37;;;;;;;13.80;11.02;;;;;;;;;;5095647;28;20363;-72
2022/10/17 04:51:04;;;;;;;15.20;11.40;;;;;;;;;;5095800;28;20028;-74
2022/10/17 04:53:31;;;;;;;19.35;12.13;;;;;;;;;;5102939;28;20027;-73
2022/10/17 04:55:58;;;;;;;18.88;12.68;;;;;;;;;;5100391;28;20020;-73
2022/10/17 04:58:24;;;;;;;17.83;12.45;;;;;;;;;;5095264;28;20016;-74
2022/10/17 05:00:50;;;;;;;20.73;13.57;;;;;;;;;;5095258;28;20062;-74
2022/10/17 05:03:16;;;;;;;15.75;11.90;;;;;;;;;;5095555;28;20070;-74
2022/10/17 05:05:42;;;;;;;23.52;12.65;;;;;;;;;;5095937;28;20112;-72
2022/10/17 05:08:09;;;;;;;17.25;11.52;;;;;;;;;;5095255;28;20382;-73
2022/10/17 05:10:47;;;;;;;15.60;11.15;;;;;;;;;;5095115;28;20043;-74
2022/10/17 05:13:13;;;;;;;20.42;11.50;;;;;;;;;;5095085;28;20382;-73
2022/10/17 05:15:40;;;;;;;16.20;10.73;;;;;;;;;;5076946;28;20048;-73
2022/10/17 05:18:06;;;;;;;23.58;11.68;;;;;;;;;;5095153;28;20031;-73
2022/10/17 05:20:33;;;;;;;14.70;10.63;;;;;;;;;;5095066;28;20036;-71
2022/10/17 05:22:59;;;;;;;22.30;14.60;;;;;;;;;;5097931;28;20019;-75
2022/10/17 05:25:25;;;;;;;45.42;27.70;;;;;;;;;;5095284;28;20095;-75
2022/10/17 05:27:51;;;;;;;39.80;22.88;;;;;;;;;;5095203;28;20085;-75
2022/10/17 05:30:19;;;;;;;18.33;12.93;;;;;;;;;;5095133;28;20020;-76
2022/10/17 05:32:46;;;;;;;15.48;10.95;;;;;;;;;;5095062;28;20054;-74
2022/10/17 05:35:12;;;;;;;16.02;10.88;;;;;;;;;;5095069;28;20486;-73
2022/10/17 05:37:38;;;;;;;17.73;11.82;;;;;;;;;;5090827;28;20016;-73
2022/10/17 05:40:04;;;;;;;24.25;11.63;;;;;;;;;;5094699;28;20032;-73
2022/10/17 05:42:30;;;;;;;35.97;13.55;;;;;;;;;;5094426;28;20133;-73
2022/10/17 05:44:57;;;;;;;17.83;12.13;;;;;;;;;;5094592;28;20028;-73
2022/10/17 05:47:23;;;;;;;20.88;12.80;;;;;;;;;;5094574;28;20013;-74
2022/10/17 05:49:49;;;;;;;23.95;13.32;;;;;;;;;;5094597;28;20021;-73
2022/10/17 05:52:15;;;;;;;22.65;13.43;;;;;;;;;;5096465;28;20051;-72
2022/10/17 05:54:41;;;;;;;28.70;13.98;;;;;;;;;;5098332;28;20505;-74
2022/10/17 05:57:07;;;;;;;33.67;16.73;;;;;;;;;;5101886;28;20478;-79
2022/10/17 05:59:33;;;;;;;28.30;20.30;;;;;;;;;;5082292;28;20482;-77
2022/10/17 06:01:59;;;;;;;37.42;19.63;;;;;;;;;;5104825;28;20050;-77
2022/10/17 06:04:26;;;;;;;31.52;22.33;;;;;;;;;;5081490;28;20047;-77
2022/10/17 06:06:53;;;;;;;33.30;20.10;;;;;;;;;;5084647;28;20024;-77
2022/10/17 06:09:19;;;;;;;44.20;27.08;;;;;;;;;;5099994;28;20145;-77
2022/10/17 06:11:45;;;;;;;69.80;35.60;;;;;;;;;;5077454;28;20173;-78
2022/10/17 06:14:11;;;;;;;48.55;26.58;;;;;;;;;;5081847;28;20470;-78
2022/10/17 06:16:37;;;;;;;47.67;25.42;;;;;;;;;;5085088;28;20081;-77
2022/10/17 06:19:03;;;;;;;37.53;22.92;;;;;;;;;;5084719;28;20099;-79
2022/10/17 06:21:33;;;;;;;55.20;26.35;;;;;;;;;;5103323;28;20032;-76
2022/10/17 06:23:59;;;;;;;33.90;20.17;;;;;;;;;;5100299;28;20100;-77
2022/10/17 06:26:25;;;;;;;28.40;18.52;;;;;;;;;;5097630;28;20081;-78
2022/10/17 06:28:51;;;;;;;27.38;17.25;;;;;;;;;;5075662;28;20046;-79
2022/10/17 06:31:17;;;;;;;22.30;17.05;;;;;;;;;;5076990;28;20024;-78
2022/10/17 06:33:43;;;;;;;51.10;28.90;;;;;;;;;;5103003;28;20028;-78
2022/10/17 06:36:13;;;;;;;36.38;20.05;;;;;;;;;;5081569;28;20022;-79
2022/10/17 06:38:40;;;;;;;44.85;22.30;;;;;;;;;;5114521;28;20085;-77
2022/10/17 06:41:09;;;;;;;36.60;18.35;;;;;;;;;;5076655;28;20048;-77
2022/10/17 06:43:38;;;;;;;25.50;18.33;;;;;;;;;;5087264;28;20106;-79
2022/10/17 06:46:05;;;;;;;25.00;16.52;;;;;;;;;;5092647;28;20110;-80
2022/10/17 06:48:31;;;;;;;31.33;16.50;;;;;;;;;;5082538;28;20084;-78
2022/10/17 06:51:01;;;;;;;30.80;21.23;;;;;;;;;;5100097;28;20042;-76
2022/10/17 06:53:28;;;;;;;23.52;14.85;;;;;;;;;;5083307;28;20111;-78
2022/10/17 06:55:56;;;;;;;21.60;14.95;;;;;;;;;;5079056;28;20477;-78
2022/10/17 06:58:23;;;;;;;17.80;14.27;;;;;;;;;;5098704;28;20179;-73
2022/10/17 07:00:49;;;;;;;21.55;15.10;;;;;;;;;;5095836;28;20062;-74
2022/10/17 07:03:18;;;;;;;20.13;12.57;;;;;;;;;;5096124;28;20390;-72
2022/10/17 07:05:50;;;;;;;19.65;13.52;;;;;;;;;;5094925;28;20047;-75
2022/10/17 07:08:16;;;;;;;14.45;12.45;;;;;;;;;;5092821;28;20028;-76
2022/10/17 07:10:42;;;;;;;19.90;12.25;;;;;;;;;;5101622;28;20036;-76
2022/10/17 07:13:09;;;;;;;21.02;13.57;;;;;;;;;;5080202;28;20023;-76
2022/10/17 07:15:36;;;;;;;17.33;12.52;;;;;;;;;;5095634;28;20030;-75
2022/10/17 07:18:02;;;;;;;18.85;14.18;;;;;;;;;;5086832;28;20099;-75
2022/10/17 07:20:28;;;;;;;26.52;15.85;;;;;;;;;;5096801;28;20046;-76
2022/10/17 07:22:54;;;;;;;24.08;18.30;;;;;;;;;;5097807;28;20020;-74
2022/10/17 07:25:20;;;;;;;26.52;19.52;;;;;;;;;;5092241;28;20020;-74
2022/10/17 07:27:48;;;;;;;29.77;19.67;;;;;;;;;;5095048;28;20031;-74
2022/10/17 07:30:14;;;;;;;30.33;19.30;;;;;;;;;;5106163;28;20544;-77
2022/10/17 07:32:40;;;;;;;28.08;20.60;;;;;;;;;;5087505;28;20024;-78
2022/10/17 07:35:06;;;;;;;31.25;21.33;;;;;;;;;;5101248;28;20044;-77
2022/10/17 07:37:32;;;;;;;33.10;21.73;;;;;;;;;;5108083;28;20092;-78
2022/10/17 07:39:59;;;;;;;32.08;21.17;;;;;;;;;;5079316;28;20035;-76
2022/10/17 07:42:25;;;;;;;28.45;19.83;;;;;;;;;;5096815;28;20020;-76
2022/10/17 07:44:51;;;;;;;35.05;23.48;;;;;;;;;;5100022;28;20027;-75
2022/10/17 07:47:17;;;;;;;34.47;23.40;;;;;;;;;;5102592;28;20028;-76
2022/10/17 07:49:44;;;;;;;31.73;23.23;;;;;;;;;;5103445;28;20026;-79
2022/10/17 07:52:10;;;;;;;32.45;21.88;;;;;;;;;;5076631;28;20112;-79
2022/10/17 07:54:37;;;;;;;37.38;22.23;;;;;;;;;;5074116;28;20020;-75
2022/10/17 07:57:03;;;;;;;32.92;23.42;;;;;;;;;;5074059;28;20047;-73
2022/10/17 07:59:29;;;;;;;41.17;24.80;;;;;;;;;;5091826;28;20421;-75
2022/10/17 08:01:56;;;;;;;34.17;24.92;;;;;;;;;;5105855;28;20027;-78
2022/10/17 08:04:22;;;;;;;40.35;25.75;;;;;;;;;;5096036;28;20116;-80
2022/10/17 08:06:49;;;;;;;33.90;23.52;;;;;;;;;;5092598;28;20028;-75
2022/10/17 08:09:15;;;;;;;36.08;23.45;;;;;;;;;;5074515;28;20027;-80
2022/10/17 08:11:42;;;;;;;28.98;23.30;;;;;;;;;;5092667;28;20115;-75
2022/10/17 08:14:09;;;;;;;32.58;24.20;;;;;;;;;;5092257;28;20089;-78
2022/10/17 08:16:35;;;;;;;33.15;23.90;;;;;;;;;;5076246;28;20056;-76
2022/10/17 08:19:02;;;;;;;31.60;19.60;;;;;;;;;;5096406;28;20016;-77
2022/10/17 08:21:28;;;;;;;25.85;19.25;;;;;;;;;;5096024;28;20043;-75
2022/10/17 08:23:54;;;;;;;33.58;21.63;;;;;;;;;;5110359;28;20103;-81
2022/10/17 08:26:20;;;;;;;22.42;18.42;;;;;;;;;;5099231;28;20028;-77
2022/10/17 08:28:46;;;;;;;29.25;18.92;;;;;;;;;;5116797;28;20027;-74
2022/10/17 08:31:14;;;;;;;29.17;21.65;;;;;;;;;;5116825;28;20027;-76
2022/10/17 08:33:41;;;;;;;27.73;19.92;;;;;;;;;;5103736;28;20544;-74
2022/10/17 08:36:08;;;;;;;27.52;21.23;;;;;;;;;;5096692;28;20024;-75
2022/10/17 08:38:35;;;;;;;31.23;21.10;;;;;;;;;;5077927;28;20389;-79
2022/10/17 08:41:03;;;;;;;24.02;18.83;;;;;;;;;;5095582;28;20466;-72
2022/10/17 08:43:48;;;;;;;27.45;19.92;;;;;;;;;;5095603;28;20073;-77
2022/10/17 08:46:14;;;;;;;23.85;16.63;;;;;;;;;;5077376;28;20048;-76
2022/10/17 08:48:42;;;;;;;26.08;17.10;;;;;;;;;;5106824;28;20027;-76
2022/10/17 08:51:11;;;;;;;25.70;18.90;;;;;;;;;;5112775;28;20114;-75
2022/10/17 08:53:46;;;;;;;25.90;20.48;;;;;;;;;;5105488;28;20541;-76
2022/10/17 08:56:39;;;;;;;20.73;15.10;;;;;;;;;;5101525;28;20024;-78
2022/10/17 08:59:10;;;;;;;22.73;16.48;;;;;;;;;;5084708;28;20482;-79
2022/10/17 09:01:44;;;;;;;24.15;16.05;;;;;;;;;;5078036;28;20090;-77
2022/10/17 09:04:32;;;;;;;21.63;14.80;;;;;;;;;;5108527;28;20038;-79
2022/10/17 09:06:58;;;;;;;20.35;13.02;;;;;;;;;;5095664;28;20048;-77
2022/10/17 09:09:30;;;;;;;17.45;13.05;;;;;;;;;;5109510;28;20049;-75
2022/10/17 09:11:56;;;;;;;17.30;13.38;;;;;;;;;;5101995;28;20049;-80
2022/10/17 09:14:39;;;;;;;20.10;14.10;;;;;;;;;;5100350;28;20424;-77
2022/10/17 09:17:11;;;;;;;17.70;13.48;;;;;;;;;;5110703;28;20098;-76
2022/10/17 09:19:39;;;;;;;94.03;68.72;;;;;;;;;;5102103;28;20038;-74
2022/10/17 09:22:08;;;;;;;33.15;23.67;;;;;;;;;;5097178;28;20077;-73
2022/10/17 09:24:46;;;;;;;37.75;24.70;;;;;;;;;;5089005;28;20016;-73
2022/10/17 09:27:21;;;;;;;27.95;18.98;;;;;;;;;;5078218;28;20023;-75
2022/10/17 09:29:48;;;;;;;28.27;20.48;;;;;;;;;;5086976;28;20113;-75
2022/10/17 09:32:16;;;;;;;19.35;13.60;;;;;;;;;;5104746;28;20032;-74
2022/10/17 09:34:43;;;;;;;18.50;12.35;;;;;;;;;;5094523;28;20088;-73
2022/10/17 09:37:12;;;;;;;26.50;18.63;;;;;;;;;;5109595;28;20020;-73
2022/10/17 09:39:40;;;;;;;17.08;11.85;;;;;;;;;;5094918;28;20032;-75
2022/10/17 09:42:09;;;;;;;18.30;10.68;;;;;;;;;;5094920;28;20474;-82
2022/10/17 09:44:40;;;;;;;14.60;10.73;;;;;;;;;;5094555;28;20020;-74
2022/10/17 09:47:18;;;;;;;18.52;13.27;;;;;;;;;;5095087;28;20028;-73
2022/10/17 09:49:45;;;;;;;17.52;11.20;;;;;;;;;;5094777;28;20099;-73
2022/10/17 09:52:32;;;;;;;18.15;13.30;;;;;;;;;;5094754;28;20478;-72
2022/10/17 09:55:06;;;;;;;28.08;17.75;;;;;;;;;;5087360;28;20027;-75
2022/10/17 09:57:55;;;;;;;17.23;11.77;;;;;;;;;;5094350;28;20024;-71
2022/10/17 10:00:26;;;;;;;14.50;10.40;;;;;;;;;;5002724;28;20174;-74
2022/10/17 10:03:07;;;;;;;13.55;10.95;;;;;;;;;;4991491;28;20649;-71
2022/10/17 10:05:33;;;;;;;13.65;10.80;;;;;;;;;;5002012;28;20049;-72
2022/10/17 10:08:02;;;;;;;15.90;10.90;;;;;;;;;;4994338;28;20859;-72
2022/10/17 10:10:28;;;;;;;12.48;10.63;;;;;;;;;;5003593;28;20015;-77
2022/10/17 10:13:12;;;;;;;16.73;12.32;;;;;;;;;;4992363;28;20030;-72
2022/10/17 10:15:40;;;;;;;11.98;9.65;;;;;;;;;;4992213;28;20030;-72
2022/10/17 10:18:24;;;;;;;14.65;11.18;;;;;;;;;;5007316;28;20029;-73
2022/10/17 10:21:05;;;;;;;19.23;13.35;;;;;;;;;;5001966;28;20080;-72
2022/10/17 10:23:32;;;;;;;18.20;13.07;;;;;;;;;;4993891;28;20024;-73
2022/10/17 10:26:01;;;;;;;10.65;8.93;;;;;;;;;;4992009;28;20041;-73
2022/10/17 10:28:31;;;;;;;11.18;9.32;;;;;;;;;;4991817;28;20412;-72
2022/10/17 10:30:59;;;;;;;14.32;9.05;;;;;;;;;;5000700;28;20073;-72
2022/10/17 10:33:27;;;;;;;11.43;9.52;;;;;;;;;;4996116;28;20121;-71
2022/10/17 10:35:57;;;;;;;9.68;7.25;;;;;;;;;;4995036;28;20041;-70
2022/10/17 10:38:23;;;;;;;14.27;8.90;;;;;;;;;;5098596;28;20047;-71
2022/10/17 10:40:52;;;;;;;11.90;8.35;;;;;;;;;;5095788;28;20036;-71
2022/10/17 10:43:38;;;;;;;10.00;7.07;;;;;;;;;;5093546;28;20016;-70
2022/10/17 10:46:06;;;;;;;9.38;8.38;;;;;;;;;;5093284;28;20029;-71
2022/10/17 10:48:35;;;;;;;10.68;7.63;;;;;;;;;;5093642;28;20099;-73
2022/10/17 10:51:16;;;;;;;12.18;8.02;;;;;;;;;;5107830;28;20373;-77
2022/10/17 10:54:00;;;;;;;8.65;6.53;;;;;;;;;;5100694;28;20042;-77
2022/10/17 10:56:29;;;;;;;12.50;11.35;;;;;;;;;;5094173;28;20024;-78
2022/10/17 10:59:02;;;;;;;14.05;9.98;;;;;;;;;;5074793;28;20389;-80
2022/10/17 11:01:34;;;;;;;12.68;8.65;;;;;;;;;;5097543;28;20028;-76
2022/10/17 11:04:00;;;;;;;12.57;8.35;;;;;;;;;;5102039;28;20602;-77
2022/10/17 11:06:32;;;;;;;11.60;8.30;;;;;;;;;;5093246;28;20225;-75
2022/10/17 11:09:05;;;;;;;13.25;7.60;;;;;;;;;;5093315;28;20027;-75
2022/10/17 11:11:33;;;;;;;10.00;7.35;;;;;;;;;;5093114;28;20024;-75
2022/10/17 11:13:59;;;;;;;12.10;8.18;;;;;;;;;;5102744;28;20023;-79
2022/10/17 11:16:32;;;;;;;8.27;7.22;;;;;;;;;;5099219;28;20059;-82
2022/10/17 11:19:06;;;;;;;19.92;7.38;;;;;;;;;;5104857;28;20016;-78
2022/10/17 11:21:45;;;;;;;8.07;6.93;;;;;;;;;;5092714;28;20036;-75
2022/10/17 11:24:11;;;;;;;24.05;9.55;;;;;;;;;;5094993;28;20109;-74
2022/10/17 11:26:41;;;;;;;8.60;7.03;;;;;;;;;;5092825;28;20490;-74
2022/10/17 11:29:10;;;;;;;12.48;8.85;;;;;;;;;;5092626;28;20032;-76
2022/10/17 11:31:38;;;;;;;10.02;7.78;;;;;;;;;;5092689;28;20023;-79
2022/10/17 11:34:08;;;;;;;11.45;8.20;;;;;;;;;;5092423;28;20056;-75
2022/10/17 11:36:36;;;;;;;9.35;7.72;;;;;;;;;;5102232;28;20020;-75
2022/10/17 11:39:07;;;;;;;8.63;6.65;;;;;;;;;;5098621;28;20024;-77
2022/10/17 11:41:36;;;;;;;10.60;7.43;;;;;;;;;;5113141;28;20059;-77
2022/10/17 11:44:14;;;;;;;9.07;6.25;;;;;;;;;;5098889;28;20088;-76
2022/10/17 11:46:42;;;;;;;7.28;6.15;;;;;;;;;;5113138;28;20030;-74
2022/10/17 11:49:13;;;;;;;12.43;8.05;;;;;;;;;;5097698;28;20016;-75
2022/10/17 11:51:46;;;;;;;7.78;6.78;;;;;;;;;;5092063;28;20020;-75
2022/10/17 11:54:29;;;;;;;12.75;7.60;;;;;;;;;;5103319;28;20034;-74
2022/10/17 11:57:07;;;;;;;9.45;7.75;;;;;;;;;;5092449;28;20054;-74
2022/10/17 11:59:39;;;;;;;13.02;7.18;;;;;;;;;;5092184;28;20554;-73
2022/10/17 12:02:09;;;;;;;6.85;5.80;;;;;;;;;;5074422;28;20087;-74
2022/10/17 12:04:54;;;;;;;9.10;6.57;;;;;;;;;;5075814;28;20043;-73
2022/10/17 12:07:43;;;;;;;9.93;6.78;;;;;;;;;;5101705;28;20062;-73
2022/10/17 12:10:18;;;;;;;10.65;8.80;;;;;;;;;;5091747;28;20359;-73
2022/10/17 12:12:44;;;;;;;7.50;5.90;;;;;;;;;;5092242;28;20035;-75
2022/10/17 12:15:13;;;;;;;8.98;6.68;;;;;;;;;;5092086;28;20095;-74
2022/10/17 12:17:41;;;;;;;8.30;7.50;;;;;;;;;;5092127;28;20020;-79
2022/10/17 12:20:27;;;;;;;10.40;6.45;;;;;;;;;;5091775;28;20056;-74
2022/10/17 12:22:53;;;;;;;10.10;6.38;;;;;;;;;;5089455;28;20047;-76
2022/10/17 12:25:30;;;;;;;8.15;6.65;;;;;;;;;;5109797;28;20024;-74
2022/10/17 12:28:12;;;;;;;7.15;6.45;;;;;;;;;;5095365;28;20052;-74
2022/10/17 12:30:48;;;;;;;7.75;6.00;;;;;;;;;;5097077;28;20073;-75
2022/10/17 12:33:16;;;;;;;8.32;6.72;;;;;;;;;;5094194;28;20028;-75
2022/10/17 12:35:42;;;;;;;9.48;6.60;;;;;;;;;;5093342;28;20044;-76
2022/10/17 12:38:18;;;;;;;10.43;8.15;;;;;;;;;;5093532;28;20520;-75
2022/10/17 12:40:46;;;;;;;10.57;7.47;;;;;;;;;;5097097;28;20558;-75
2022/10/17 12:43:15;;;;;;;11.27;7.72;;;;;;;;;;5092017;28;20043;-75
2022/10/17 12:46:10;;;;;;;18.60;9.98;;;;;;;;;;5097807;28;20024;-74
2022/10/17 12:48:36;;;;;;;10.80;7.55;;;;;;;;;;4993020;28;20037;-72
2022/10/17 12:51:06;;;;;;;12.95;5.78;;;;;;;;;;4993770;28;20083;-74
2022/10/17 12:53:45;;;;;;;11.65;6.55;;;;;;;;;;4991306;28;20038;-74
2022/10/17 12:56:11;;;;;;;12.60;7.90;;;;;;;;;;4989825;28;20023;-75
2022/10/17 12:58:42;;;;;;;7.15;6.45;;;;;;;;;;4989742;28;20505;-75
2022/10/17 13:01:14;;;;;;;10.80;7.20;;;;;;;;;;4973242;28;20496;-74
2022/10/17 13:03:45;;;;;;;9.60;6.70;;;;;;;;;;4981659;28;20030;-75
2022/10/17 13:06:15;;;;;;;11.35;9.13;;;;;;;;;;5013070;28;20050;-74
2022/10/17 13:08:46;;;;;;;7.28;5.88;;;;;;;;;;4993478;28;20041;-73
2022/10/17 13:11:14;;;;;;;8.07;7.28;;;;;;;;;;5005885;28;20058;-76
2022/10/17 13:13:47;;;;;;;9.05;6.43;;;;;;;;;;5012935;28;20108;-73
2022/10/17 13:16:28;;;;;;;10.40;7.95;;;;;;;;;;5012863;28;20157;-74
2022/10/17 13:18:54;;;;;;;6.97;6.28;;;;;;;;;;5007350;28;20044;-74
2022/10/17 13:21:21;;;;;;;17.15;9.57;;;;;;;;;;5005426;28;20499;-74
2022/10/17 13:23:49;;;;;;;9.57;6.80;;;;;;;;;;5009570;28;20587;-73
2022/10/17 13:26:20;;;;;;;11.20;8.45;;;;;;;;;;5104600;28;20071;-74
2022/10/17 13:29:06;;;;;;;11.52;7.40;;;;;;;;;;5097880;28;20461;-73
2022/10/17 13:31:36;;;;;;;9.15;6.50;;;;;;;;;;4995988;28;20037;-73
2022/10/17 13:34:04;;;;;;;15.43;7.28;;;;;;;;;;5016027;28;20503;-73
2022/10/17 13:36:30;;;;;;;12.98;9.13;;;;;;;;;;5023611;28;20030;-72
2022/10/17 13:38:58;;;;;;;9.57;7.50;;;;;;;;;;5027583;28;20072;-73
2022/10/17 13:41:29;;;;;;;9.45;7.05;;;;;;;;;;5009216;28;20038;-74
2022/10/17 13:43:57;;;;;;;10.60;9.50;;;;;;;;;;5026138;28;20824;-75
2022/10/17 13:46:41;;;;;;;8.07;7.20;;;;;;;;;;5032110;28;20527;-77
2022/10/17 13:49:30;;;;;;;10.57;6.88;;;;;;;;;;4996402;28;20053;-79
2022/10/17 13:51:57;;;;;;;15.82;6.97;;;;;;;;;;5004789;28;20033;-73
2022/10/17 13:54:32;;;;;;;8.88;7.03;;;;;;;;;;5024492;28;20037;-74
2022/10/17 13:56:59;;;;;;;7.65;6.60;;;;;;;;;;5031747;28;20051;-75
2022/10/17 13:59:28;;;;;;;7.85;6.57;;;;;;;;;;5031519;28;20056;-73
2022/10/17 14:01:54;;;;;;;13.73;8.68;;;;;;;;;;5031554;28;20042;-74
2022/10/17 14:04:20;;;;;;;9.77;6.97;;;;;;;;;;5031869;28;20026;-73
2022/10/17 14:06:47;;;;;;;11.88;6.13;;;;;;;;;;5031648;28;20174;-72
2022/10/17 14:09:21;;;;;;;11.65;7.55;;;;;;;;;;5078712;28;20036;-71
2022/10/17 14:11:56;;;;;;;12.13;7.40;;;;;;;;;;5092416;28;20024;-73
2022/10/17 14:14:27;;;;;;;12.85;8.07;;;;;;;;;;5106504;28;20055;-72
2022/10/17 14:16:53;;;;;;;14.63;7.93;;;;;;;;;;5094393;28;20024;-73
2022/10/17 14:19:19;;;;;;;7.50;5.65;;;;;;;;;;5105584;28;20058;-74
2022/10/17 14:21:48;;;;;;;10.23;6.45;;;;;;;;;;5096099;28;20036;-73
2022/10/17 14:24:20;;;;;;;13.45;6.90;;;;;;;;;;5094791;28;20470;-73
2022/10/17 14:26:51;;;;;;;13.55;9.82;;;;;;;;;;5110614;28;20431;-75
2022/10/17 14:29:43;;;;;;;10.05;7.88;;;;;;;;;;5114005;28;20031;-74
2022/10/17 14:32:13;;;;;;;13.80;8.02;;;;;;;;;;5104080;28;20028;-71
2022/10/17 14:34:40;;;;;;;27.63;8.48;;;;;;;;;;5093823;28;20558;-72
2022/10/17 14:37:10;;;;;;;9.80;7.00;;;;;;;;;;5100386;28;20095;-73
2022/10/17 14:39:37;;;;;;;10.02;5.82;;;;;;;;;;5093744;28;20027;-74